Aktuelle Bedingungen
meist wolkig



Luftdruck
1004.92 (hPa) - 29.68 (inHG)
Sichtbarkeit

9.0 (km) - 5.6 (miles)
Temperatur
1  °C
Temperatur
0  °C
Taupunkt
93  %
 Luftfeuchte
Wind Geschwindigkeit
14  km/h
8  kts
9  mph
4.0  m/s
Wind Richtung
N
45°
O
90°
135°
S
180°
225°
W
270°
315°
 70°

Ost Nord
Ost
Airport Data
EDDP
Leipzig/Halle Airport
Metar :EDDP 091420Z AUTO 07008KT 9000 BKN005 OVC032 01/00 Q1005 NOSIG
Freitag 9.Dezember 15:20
Raw Metar Info
Raw METAR is the most common format in the world for the transmission of observational weather data. It is highly standardized through the International Civil Aviation Organization (ICAO), which allows it to be understood throughout most of the world.
API Info
Data Provided by
https://www.checkwx.com/weather/EDDP

Aviation Weather providing METAR, TAF, AIRMET, SIGMET and OUTLOOK Weather Reports
© Info
CSS/SVG/PHP scripts were developed by weather34.com for use in the weather34 template © 2015-2022

Guide Info provided by Metar-Wikipedia